Time;durP1;ratioP1;P1;durP2;ratioP2;P2;SDS_P1;SDS_P2;PMS_P1;PMS_P2;Temp;Humidity;BMP_temperature;BMP_pressure;BME280_temperature;BME280_humidity;BME280_pressure;Samples;Min_cycle;Max_cycle;Signal;HPM_P1;HPM_P2
2022/01/24 06:50:36;;;;;;;23.92;11.85;;;;;;;;;;5244231;23;20511;-63
2022/01/24 06:53:02;;;;;;;72.70;35.50;;;;;;;;;;5030783;28;20033;-63
2022/01/24 06:55:28;;;;;;;57.95;30.05;;;;;;;;;;5022493;28;20022;-66
2022/01/24 06:57:54;;;;;;;37.13;17.77;;;;;;;;;;5013588;28;20113;-65
2022/01/24 07:00:26;;;;;;;33.92;17.35;;;;;;;;;;5013774;28;20040;-63
2022/01/24 07:02:56;;;;;;;34.83;16.05;;;;;;;;;;5016116;28;20049;-62
2022/01/24 07:05:22;;;;;;;30.33;14.40;;;;;;;;;;5024239;28;20518;-64
2022/01/24 07:07:49;;;;;;;27.52;13.80;;;;;;;;;;5016721;28;20029;-63
2022/01/24 07:10:15;;;;;;;25.05;12.65;;;;;;;;;;5033260;28;20109;-61
2022/01/24 07:12:41;;;;;;;29.08;12.77;;;;;;;;;;5034387;28;20515;-61
2022/01/24 07:15:11;;;;;;;23.38;11.50;;;;;;;;;;5033098;28;20435;-63
2022/01/24 07:20:23;;;;;;;26.50;12.65;;;;;;;;;;5033413;28;20132;-58
2022/01/24 07:22:49;;;;;;;24.00;11.63;;;;;;;;;;5032660;28;20040;-58
2022/01/24 07:25:15;;;;;;;27.42;12.93;;;;;;;;;;5033678;28;20025;-59
2022/01/24 07:27:42;;;;;;;28.58;13.48;;;;;;;;;;5014680;28;20030;-61
2022/01/24 07:30:08;;;;;;;29.20;13.00;;;;;;;;;;5035056;28;20036;-60
2022/01/24 07:32:34;;;;;;;39.58;15.52;;;;;;;;;;5032518;28;20056;-59
2022/01/24 07:35:00;;;;;;;30.63;14.63;;;;;;;;;;5032373;28;20060;-60
2022/01/24 07:37:26;;;;;;;28.95;14.02;;;;;;;;;;5032514;28;20033;-59
2022/01/24 07:39:58;;;;;;;34.17;14.90;;;;;;;;;;5032193;28;20033;-61
2022/01/24 07:42:52;;;;;;;37.20;15.02;;;;;;;;;;5011959;28;20030;-58
2022/01/24 07:45:13;;;;;;;47.83;20.70;;;;;;;;;;5025314;28;20476;-59
2022/01/24 07:47:39;;;;;;;37.35;17.63;;;;;;;;;;5031804;28;20034;-60
2022/01/24 07:50:05;;;;;;;29.00;14.45;;;;;;;;;;5027637;28;20097;-61
2022/01/24 07:52:31;;;;;;;29.15;13.95;;;;;;;;;;5012826;28;20038;-59
2022/01/24 07:54:57;;;;;;;25.00;13.40;;;;;;;;;;5013075;28;20022;-59
2022/01/24 07:57:23;;;;;;;26.65;12.60;;;;;;;;;;5012621;28;20068;-60
2022/01/24 07:59:49;;;;;;;22.75;10.43;;;;;;;;;;5011131;28;20034;-59
2022/01/24 08:02:15;;;;;;;21.92;10.48;;;;;;;;;;5003024;28;20030;-59
2022/01/24 08:04:41;;;;;;;26.52;12.07;;;;;;;;;;4999756;28;20021;-59
2022/01/24 08:07:07;;;;;;;27.17;12.93;;;;;;;;;;4983175;28;20033;-63
2022/01/24 08:09:34;;;;;;;38.55;17.35;;;;;;;;;;5010430;28;20025;-60
2022/01/24 08:12:01;;;;;;;25.42;12.20;;;;;;;;;;5002278;28;20084;-60
2022/01/24 08:14:27;;;;;;;27.45;12.05;;;;;;;;;;5012055;28;20022;-58
2022/01/24 08:16:53;;;;;;;24.02;12.13;;;;;;;;;;5015367;28;20030;-61
2022/01/24 08:19:19;;;;;;;138.18;51.88;;;;;;;;;;4999969;28;20030;-60
2022/01/24 08:21:45;;;;;;;36.90;16.60;;;;;;;;;;5010642;28;20504;-58
2022/01/24 08:24:12;;;;;;;34.20;15.55;;;;;;;;;;5007170;28;20049;-60
2022/01/24 08:26:39;;;;;;;25.08;12.52;;;;;;;;;;5012025;28;20029;-59
2022/01/24 08:29:05;;;;;;;37.63;16.50;;;;;;;;;;5009896;28;20116;-58
2022/01/24 08:31:32;;;;;;;47.40;24.85;;;;;;;;;;5007550;28;20417;-59
2022/01/24 08:33:58;;;;;;;43.38;19.42;;;;;;;;;;4992643;28;20057;-60
2022/01/24 08:36:24;;;;;;;33.38;15.82;;;;;;;;;;5009763;28;20022;-62
2022/01/24 08:38:51;;;;;;;34.35;17.50;;;;;;;;;;4998878;28;20037;-59
2022/01/24 08:41:26;;;;;;;28.13;15.00;;;;;;;;;;5000476;28;20484;-59
2022/01/24 08:43:59;;;;;;;27.20;13.57;;;;;;;;;;4999587;28;20034;-60
2022/01/24 08:46:26;;;;;;;28.83;13.85;;;;;;;;;;5006636;28;20446;-61
2022/01/24 08:48:52;;;;;;;25.67;13.52;;;;;;;;;;5009138;28;20101;-60
2022/01/24 08:51:19;;;;;;;28.25;14.30;;;;;;;;;;5001631;28;20167;-57
2022/01/24 08:53:45;;;;;;;26.90;13.45;;;;;;;;;;4999543;28;20033;-59
2022/01/24 08:56:11;;;;;;;28.67;14.52;;;;;;;;;;5011514;28;20389;-59
2022/01/24 08:58:39;;;;;;;41.08;20.73;;;;;;;;;;4997497;28;20042;-60
2022/01/24 09:01:07;;;;;;;38.20;18.40;;;;;;;;;;5005575;28;20033;-60
2022/01/24 09:03:39;;;;;;;37.90;17.17;;;;;;;;;;5012994;28;20038;-59
2022/01/24 09:06:06;;;;;;;38.00;17.80;;;;;;;;;;5005680;28;20660;-59
2022/01/24 09:08:34;;;;;;;36.80;17.38;;;;;;;;;;5012185;28;20052;-60
2022/01/24 09:11:00;;;;;;;32.05;13.82;;;;;;;;;;4999693;28;20036;-59
2022/01/24 09:13:26;;;;;;;27.80;13.95;;;;;;;;;;5000613;28;20596;-59
2022/01/24 09:15:56;;;;;;;30.15;14.98;;;;;;;;;;5013883;28;20088;-61
2022/01/24 09:18:25;;;;;;;34.30;16.05;;;;;;;;;;4963330;28;20254;-57
2022/01/24 09:20:52;;;;;;;37.45;16.85;;;;;;;;;;4992383;28;20378;-60
2022/01/24 09:23:18;;;;;;;31.23;15.95;;;;;;;;;;4991615;28;20041;-60
2022/01/24 09:25:44;;;;;;;32.88;15.95;;;;;;;;;;5007052;28;20048;-60
2022/01/24 09:28:11;;;;;;;35.85;16.77;;;;;;;;;;5009431;28;20026;-59
2022/01/24 09:30:37;;;;;;;34.90;15.85;;;;;;;;;;5008664;28;20109;-60
2022/01/24 09:33:04;;;;;;;34.33;16.30;;;;;;;;;;5010664;28;20041;-61
2022/01/24 09:35:30;;;;;;;28.17;13.88;;;;;;;;;;5009794;28;20050;-58
2022/01/24 09:37:56;;;;;;;40.38;18.25;;;;;;;;;;5009296;28;20378;-57
2022/01/24 09:40:24;;;;;;;30.83;15.80;;;;;;;;;;5010395;28;20030;-61
2022/01/24 09:42:50;;;;;;;33.88;16.45;;;;;;;;;;5013657;28;20018;-60
2022/01/24 09:45:17;;;;;;;31.42;15.27;;;;;;;;;;5008232;28;20037;-61
2022/01/24 09:47:44;;;;;;;23.95;13.05;;;;;;;;;;4998740;28;20014;-61
2022/01/24 09:50:11;;;;;;;25.95;12.50;;;;;;;;;;4999276;28;20034;-60
2022/01/24 09:52:40;;;;;;;29.20;14.93;;;;;;;;;;5006533;28;20029;-60
2022/01/24 09:55:06;;;;;;;27.48;14.50;;;;;;;;;;5006798;28;20025;-60
2022/01/24 09:57:32;;;;;;;26.95;13.55;;;;;;;;;;5008301;28;20026;-60
2022/01/24 09:59:58;;;;;;;27.02;13.32;;;;;;;;;;5005962;28;20163;-60
2022/01/24 10:02:25;;;;;;;26.17;12.95;;;;;;;;;;5008429;28;20030;-60
2022/01/24 10:04:51;;;;;;;22.75;11.93;;;;;;;;;;5008245;28;20030;-60
2022/01/24 10:07:18;;;;;;;26.02;13.23;;;;;;;;;;5009255;28;20481;-61
2022/01/24 10:09:49;;;;;;;26.35;12.88;;;;;;;;;;5005109;28;20034;-60
2022/01/24 10:12:26;;;;;;;24.73;12.32;;;;;;;;;;5002863;28;20056;-60
2022/01/24 10:17:40;;;;;;;31.05;14.98;;;;;;;;;;5003981;28;20041;-61
2022/01/24 10:20:18;;;;;;;32.95;15.60;;;;;;;;;;5005375;28;20449;-61
2022/01/24 10:22:59;;;;;;;31.27;16.70;;;;;;;;;;5007602;28;20037;-60
2022/01/24 10:25:25;;;;;;;38.37;18.97;;;;;;;;;;5002067;28;20037;-60
2022/01/24 10:27:59;;;;;;;34.90;17.85;;;;;;;;;;5004247;28;20303;-60
2022/01/24 10:30:27;;;;;;;31.98;16.65;;;;;;;;;;5012918;28;20026;-60
2022/01/24 10:32:55;;;;;;;36.63;17.90;;;;;;;;;;5006385;28;20044;-60
2022/01/24 10:35:40;;;;;;;40.28;18.02;;;;;;;;;;4996505;28;20026;-60
2022/01/24 10:38:54;;;;;;;37.35;17.67;;;;;;;;;;5002869;28;20041;-60
2022/01/24 10:41:24;;;;;;;40.58;19.83;;;;;;;;;;4931878;29;20541;-61
2022/01/24 10:43:55;;;;;;;39.38;20.15;;;;;;;;;;4936863;29;20073;-60
2022/01/24 10:46:26;;;;;;;45.17;21.67;;;;;;;;;;4917779;29;20079;-60
2022/01/24 10:49:12;;;;;;;50.38;25.63;;;;;;;;;;4933605;29;20075;-62
2022/01/24 10:51:45;;;;;;;49.97;24.02;;;;;;;;;;4917529;29;20079;-61
2022/01/24 10:54:29;;;;;;;48.67;23.10;;;;;;;;;;4899749;29;20114;-61
2022/01/24 10:56:57;;;;;;;49.58;25.10;;;;;;;;;;4944998;29;20071;-61
2022/01/24 10:59:51;;;;;;;45.63;23.00;;;;;;;;;;4922570;29;20139;-60
2022/01/24 11:02:19;;;;;;;48.45;23.98;;;;;;;;;;4933192;29;20036;-61
2022/01/24 11:04:48;;;;;;;53.88;25.05;;;;;;;;;;4925155;29;20032;-62
2022/01/24 11:07:14;;;;;;;52.97;25.60;;;;;;;;;;4933562;29;20146;-61
2022/01/24 11:09:40;;;;;;;51.15;26.27;;;;;;;;;;4930790;29;20594;-62
2022/01/24 11:12:10;;;;;;;53.42;25.45;;;;;;;;;;4932936;29;20040;-60
2022/01/24 11:14:38;;;;;;;52.67;25.13;;;;;;;;;;4916894;29;20135;-61
2022/01/24 11:17:05;;;;;;;51.97;26.15;;;;;;;;;;4942376;28;20070;-61
2022/01/24 11:22:07;;;;;;;53.67;27.15;;;;;;;;;;5010762;28;20084;-62
2022/01/24 11:24:46;;;;;;;50.05;23.17;;;;;;;;;;5011073;28;20057;-60
2022/01/24 11:27:14;;;;;;;49.33;23.92;;;;;;;;;;5013865;28;20556;-61
2022/01/24 11:29:42;;;;;;;46.90;23.52;;;;;;;;;;4971036;28;20378;-61
2022/01/24 11:32:26;;;;;;;50.67;24.90;;;;;;;;;;4971144;28;20034;-62
2022/01/24 11:34:54;;;;;;;60.35;25.65;;;;;;;;;;5003192;28;20105;-61
2022/01/24 11:37:39;;;;;;;53.00;24.55;;;;;;;;;;5002932;28;20025;-61
2022/01/24 11:40:10;;;;;;;47.95;23.65;;;;;;;;;;5003139;28;20129;-61
2022/01/24 11:42:36;;;;;;;45.10;22.38;;;;;;;;;;5002992;28;20030;-61
2022/01/24 11:45:10;;;;;;;48.33;23.05;;;;;;;;;;5001280;28;20121;-62
2022/01/24 11:47:37;;;;;;;47.60;23.25;;;;;;;;;;5001734;28;20022;-61
2022/01/24 11:50:22;;;;;;;46.40;21.70;;;;;;;;;;5001907;28;20026;-62
2022/01/24 11:52:48;;;;;;;45.42;22.40;;;;;;;;;;4977823;28;20064;-61
2022/01/24 11:55:17;;;;;;;48.88;23.30;;;;;;;;;;4994679;28;20023;-62
2022/01/24 11:57:47;;;;;;;41.92;22.05;;;;;;;;;;5003712;28;20037;-62
2022/01/24 12:00:26;;;;;;;39.97;21.23;;;;;;;;;;5004545;28;20033;-62
2022/01/24 12:02:55;;;;;;;46.95;24.00;;;;;;;;;;5007779;28;20037;-60
2022/01/24 12:05:22;;;;;;;48.53;22.77;;;;;;;;;;5011949;28;20029;-60
2022/01/24 12:07:51;;;;;;;53.00;26.48;;;;;;;;;;5001799;28;20034;-60
2022/01/24 12:10:36;;;;;;;47.28;24.45;;;;;;;;;;5011571;28;20022;-61
2022/01/24 12:13:05;;;;;;;46.67;20.80;;;;;;;;;;5010208;28;20040;-61
2022/01/24 12:15:37;;;;;;;36.60;19.17;;;;;;;;;;5010762;28;20029;-60
2022/01/24 12:18:13;;;;;;;37.67;17.95;;;;;;;;;;5009663;28;20036;-61
2022/01/24 12:20:42;;;;;;;41.08;18.95;;;;;;;;;;5006127;28;20069;-60
2022/01/24 12:23:25;;;;;;;43.35;18.42;;;;;;;;;;4981853;28;20040;-60
2022/01/24 12:25:54;;;;;;;37.35;18.65;;;;;;;;;;4977117;28;20404;-61
2022/01/24 12:28:29;;;;;;;36.45;18.73;;;;;;;;;;5004734;28;20033;-61
2022/01/24 12:31:20;;;;;;;39.83;18.10;;;;;;;;;;5005026;28;20030;-60
2022/01/24 12:33:55;;;;;;;36.42;17.70;;;;;;;;;;4943977;29;20074;-60
2022/01/24 12:36:49;;;;;;;35.55;17.05;;;;;;;;;;4945174;29;20043;-61
2022/01/24 12:39:27;;;;;;;34.30;17.50;;;;;;;;;;4939956;29;20063;-61
2022/01/24 12:41:59;;;;;;;41.22;18.92;;;;;;;;;;4941007;29;20139;-61
2022/01/24 12:47:05;;;;;;;32.10;15.73;;;;;;;;;;4950348;29;20082;-60
2022/01/24 12:49:33;;;;;;;37.67;17.70;;;;;;;;;;4949856;28;20106;-61
2022/01/24 12:52:09;;;;;;;34.55;17.80;;;;;;;;;;4948903;28;20050;-59
2022/01/24 12:54:37;;;;;;;35.38;18.40;;;;;;;;;;4941705;29;20067;-62
2022/01/24 12:57:08;;;;;;;35.00;17.10;;;;;;;;;;4940007;28;20031;-60
2022/01/24 12:59:37;;;;;;;71.97;36.70;;;;;;;;;;4940739;29;20062;-62
2022/01/24 13:02:04;;;;;;;44.40;22.65;;;;;;;;;;4947373;29;20106;-61
2022/01/24 13:04:38;;;;;;;49.95;22.67;;;;;;;;;;4950869;29;20043;-61
2022/01/24 13:07:05;;;;;;;46.92;21.42;;;;;;;;;;4946244;29;20038;-61
2022/01/24 13:09:31;;;;;;;38.15;18.70;;;;;;;;;;4949329;29;20043;-60
2022/01/24 13:12:00;;;;;;;52.63;20.77;;;;;;;;;;5008696;28;20049;-61
2022/01/24 13:25:11;;;;;;;32.33;15.10;;;;;;;;;;5006741;28;20431;-63
2022/01/24 13:27:42;;;;;;;32.60;16.65;;;;;;;;;;5003889;28;20346;-63
2022/01/24 13:30:10;;;;;;;32.00;16.23;;;;;;;;;;5002298;28;20425;-61
2022/01/24 13:32:57;;;;;;;32.47;16.58;;;;;;;;;;5002470;28;20048;-62
2022/01/24 13:35:30;;;;;;;38.97;17.65;;;;;;;;;;5009069;28;20046;-61
2022/01/24 13:38:01;;;;;;;49.40;21.02;;;;;;;;;;5003425;28;20031;-61
2022/01/24 13:40:31;;;;;;;33.53;15.75;;;;;;;;;;5000088;28;20105;-58
2022/01/24 13:42:58;;;;;;;54.75;23.88;;;;;;;;;;5008979;28;20040;-61
2022/01/24 13:45:25;;;;;;;55.95;25.10;;;;;;;;;;4990828;28;20022;-59
2022/01/24 13:48:01;;;;;;;57.90;25.42;;;;;;;;;;5009667;28;20033;-60
2022/01/24 13:50:27;;;;;;;41.10;18.83;;;;;;;;;;5003099;28;20046;-61
2022/01/24 13:52:54;;;;;;;34.67;17.77;;;;;;;;;;5013089;28;20030;-59
2022/01/24 13:55:22;;;;;;;32.60;16.38;;;;;;;;;;5014777;28;20076;-61
2022/01/24 13:57:50;;;;;;;30.42;15.00;;;;;;;;;;5012934;28;20167;-62
2022/01/24 14:00:20;;;;;;;37.55;17.45;;;;;;;;;;5011813;28;20065;-63
2022/01/24 14:02:46;;;;;;;35.40;17.48;;;;;;;;;;5007273;28;20029;-62
2022/01/24 14:05:13;;;;;;;37.45;18.58;;;;;;;;;;5008628;28;20022;-64
2022/01/24 14:07:42;;;;;;;34.40;16.40;;;;;;;;;;5012635;28;20508;-62
2022/01/24 14:10:10;;;;;;;36.00;18.42;;;;;;;;;;5002594;28;20030;-63
2022/01/24 14:12:45;;;;;;;59.55;26.25;;;;;;;;;;5004632;28;20366;-61
2022/01/24 14:18:05;;;;;;;40.83;20.13;;;;;;;;;;5002960;28;20019;-61
2022/01/24 14:20:31;;;;;;;39.13;20.30;;;;;;;;;;5004796;28;20112;-61
2022/01/24 14:22:57;;;;;;;39.90;18.10;;;;;;;;;;5003041;28;20033;-63
2022/01/24 14:25:25;;;;;;;43.17;19.17;;;;;;;;;;5005632;28;20033;-62
2022/01/24 14:27:56;;;;;;;37.55;17.27;;;;;;;;;;5003928;28;20054;-64
2022/01/24 14:30:31;;;;;;;38.25;17.85;;;;;;;;;;5002267;28;20037;-63
2022/01/24 14:33:03;;;;;;;48.80;22.17;;;;;;;;;;5003688;28;20037;-62
2022/01/24 14:35:32;;;;;;;48.00;19.88;;;;;;;;;;5004575;28;20025;-63
2022/01/24 14:37:59;;;;;;;47.17;20.75;;;;;;;;;;5003885;28;20490;-61
2022/01/24 14:40:44;;;;;;;42.70;20.13;;;;;;;;;;5003718;28;20014;-60
2022/01/24 14:45:55;;;;;;;42.08;20.08;;;;;;;;;;5008614;28;20317;-59
2022/01/24 14:48:21;;;;;;;58.63;23.77;;;;;;;;;;5002374;28;20517;-61
2022/01/24 14:50:47;;;;;;;50.50;21.52;;;;;;;;;;4999305;28;20041;-60
2022/01/24 14:53:16;;;;;;;55.47;22.30;;;;;;;;;;5010043;28;20034;-60
2022/01/24 14:55:42;;;;;;;46.35;20.98;;;;;;;;;;5011640;28;20065;-61
2022/01/24 14:58:08;;;;;;;38.05;18.98;;;;;;;;;;5003282;28;20045;-60
2022/01/24 15:00:34;;;;;;;51.15;20.90;;;;;;;;;;5003031;28;20557;-62
2022/01/24 15:03:00;;;;;;;35.08;17.02;;;;;;;;;;5006598;28;20014;-61
2022/01/24 15:05:27;;;;;;;42.50;17.67;;;;;;;;;;5002855;28;20046;-62
2022/01/24 15:07:53;;;;;;;34.88;15.55;;;;;;;;;;5003428;28;20107;-61
2022/01/24 15:10:19;;;;;;;34.88;15.60;;;;;;;;;;5007458;28;20465;-62
2022/01/24 15:12:51;;;;;;;38.70;18.25;;;;;;;;;;5004024;28;20030;-62
2022/01/24 15:15:19;;;;;;;48.03;22.25;;;;;;;;;;5005065;28;20113;-62
2022/01/24 15:26:01;;;;;;;72.35;20.90;;;;;;;;;;5000285;28;20041;-63
2022/01/24 15:28:27;;;;;;;32.53;13.20;;;;;;;;;;5002375;28;20022;-62
2022/01/24 15:30:53;;;;;;;35.20;15.00;;;;;;;;;;5004094;28;20030;-61
2022/01/24 15:33:19;;;;;;;32.60;14.85;;;;;;;;;;5003714;28;20018;-61
2022/01/24 15:35:46;;;;;;;36.88;17.15;;;;;;;;;;4984913;28;20469;-60
2022/01/24 15:38:14;;;;;;;69.35;22.23;;;;;;;;;;5006492;28;20035;-62
2022/01/24 15:40:41;;;;;;;37.25;16.65;;;;;;;;;;5005366;28;20027;-61
2022/01/24 15:43:41;;;;;;;56.38;23.20;;;;;;;;;;5004864;28;20161;-60
2022/01/24 15:46:45;;;;;;;60.00;21.08;;;;;;;;;;4994121;28;20405;-62
2022/01/24 15:48:46;;;;;;;51.15;18.92;;;;;;;;;;5003465;28;20037;-61
2022/01/24 15:51:13;;;;;;;60.63;21.67;;;;;;;;;;5002911;28;20061;-60
2022/01/24 15:53:40;;;;;;;58.78;20.02;;;;;;;;;;4998974;28;20026;-60
2022/01/24 15:56:15;;;;;;;85.72;25.60;;;;;;;;;;5002741;28;20026;-61
2022/01/24 15:58:46;;;;;;;56.15;22.48;;;;;;;;;;4997043;28;20034;-60
2022/01/24 16:01:12;;;;;;;54.35;21.65;;;;;;;;;;5001369;28;20469;-59
2022/01/24 16:03:38;;;;;;;41.15;20.08;;;;;;;;;;4983669;28;20050;-60
2022/01/24 16:06:04;;;;;;;47.67;20.25;;;;;;;;;;5006111;28;20034;-62
2022/01/24 16:08:30;;;;;;;76.68;26.48;;;;;;;;;;5006759;28;20057;-62
2022/01/24 16:10:57;;;;;;;71.45;24.48;;;;;;;;;;5002932;28;20088;-63
2022/01/24 16:13:23;;;;;;;77.00;24.92;;;;;;;;;;5003883;28;20486;-63
2022/01/24 16:15:50;;;;;;;101.60;30.00;;;;;;;;;;5003294;28;20018;-61
2022/01/24 16:18:18;;;;;;;87.38;27.08;;;;;;;;;;5002286;28;20039;-61
2022/01/24 16:23:31;;;;;;;88.90;27.93;;;;;;;;;;5003553;28;20030;-60
2022/01/24 16:26:01;;;;;;;64.13;22.02;;;;;;;;;;5003704;28;20029;-61
2022/01/24 16:28:30;;;;;;;65.50;25.92;;;;;;;;;;4993267;28;20137;-61
2022/01/24 16:30:59;;;;;;;57.03;26.38;;;;;;;;;;4995877;28;20052;-63
2022/01/24 16:33:27;;;;;;;69.00;28.02;;;;;;;;;;4982446;28;20029;-63
2022/01/24 16:35:55;;;;;;;66.35;28.05;;;;;;;;;;5008032;28;20030;-62
2022/01/24 16:38:23;;;;;;;65.47;26.90;;;;;;;;;;5003985;28;20062;-60
2022/01/24 16:40:55;;;;;;;57.95;25.50;;;;;;;;;;5002013;28;20015;-60
2022/01/24 16:48:32;;;;;;;62.75;27.90;;;;;;;;;;5002416;28;20504;-64
2022/01/24 16:50:59;;;;;;;59.47;26.80;;;;;;;;;;4988793;28;20045;-62
2022/01/24 16:53:25;;;;;;;55.40;25.92;;;;;;;;;;5011046;28;20030;-62
2022/01/24 16:55:52;;;;;;;61.20;28.75;;;;;;;;;;5011383;28;20547;-64
2022/01/24 16:58:18;;;;;;;55.10;24.92;;;;;;;;;;5011192;28;20103;-62
2022/01/24 17:00:45;;;;;;;58.75;28.65;;;;;;;;;;5005509;28;20373;-63
2022/01/24 17:03:11;;;;;;;50.78;24.35;;;;;;;;;;5000307;28;20024;-61
2022/01/24 17:05:41;;;;;;;52.65;25.77;;;;;;;;;;5003103;28;20028;-62
2022/01/24 17:08:07;;;;;;;55.20;25.52;;;;;;;;;;5001292;28;20101;-60
2022/01/24 17:10:33;;;;;;;58.83;26.10;;;;;;;;;;4999976;28;20433;-60
2022/01/24 17:13:03;;;;;;;51.97;24.38;;;;;;;;;;4968709;28;20485;-59
2022/01/24 17:15:30;;;;;;;53.72;24.55;;;;;;;;;;4996501;28;20026;-61
2022/01/24 17:17:56;;;;;;;53.90;24.58;;;;;;;;;;4991268;28;20363;-60
2022/01/24 17:20:22;;;;;;;55.38;27.15;;;;;;;;;;5001710;28;20030;-63
2022/01/24 17:22:48;;;;;;;57.78;27.98;;;;;;;;;;5006725;28;20054;-63
2022/01/24 17:25:14;;;;;;;60.58;28.88;;;;;;;;;;5010329;28;20032;-62
2022/01/24 17:27:40;;;;;;;65.20;31.08;;;;;;;;;;4995326;28;20023;-60
2022/01/24 17:30:07;;;;;;;57.22;27.42;;;;;;;;;;5008226;28;20064;-62
2022/01/24 17:32:33;;;;;;;52.10;24.88;;;;;;;;;;5014396;28;20417;-60
2022/01/24 17:35:00;;;;;;;54.75;26.42;;;;;;;;;;5012990;28;20113;-58
2022/01/24 17:37:26;;;;;;;54.25;26.38;;;;;;;;;;5013932;28;20432;-58
2022/01/24 17:39:52;;;;;;;54.60;25.38;;;;;;;;;;4997075;28;20046;-59
2022/01/24 17:42:18;;;;;;;61.65;28.50;;;;;;;;;;4999404;28;20080;-59
2022/01/24 17:44:44;;;;;;;63.13;28.58;;;;;;;;;;5014433;28;20032;-60
2022/01/24 17:47:10;;;;;;;55.22;26.13;;;;;;;;;;5014702;28;20022;-59
2022/01/24 17:49:36;;;;;;;49.65;24.90;;;;;;;;;;5014540;28;20420;-59
2022/01/24 17:52:07;;;;;;;51.72;25.95;;;;;;;;;;4996805;28;20329;-59
2022/01/24 17:54:43;;;;;;;58.60;26.80;;;;;;;;;;4998018;28;20550;-60
2022/01/24 17:57:09;;;;;;;55.63;26.25;;;;;;;;;;5014279;28;20057;-59
2022/01/24 17:59:37;;;;;;;56.90;25.85;;;;;;;;;;5015487;28;20065;-60
2022/01/24 18:02:03;;;;;;;53.15;26.15;;;;;;;;;;5015397;28;20133;-60
2022/01/24 18:04:29;;;;;;;51.53;25.02;;;;;;;;;;5005834;28;20030;-64
2022/01/24 18:06:56;;;;;;;50.53;25.80;;;;;;;;;;4995742;28;20027;-60
2022/01/24 18:09:22;;;;;;;52.90;26.38;;;;;;;;;;4994903;28;20062;-60
2022/01/24 18:11:49;;;;;;;60.38;27.23;;;;;;;;;;4995289;28;20030;-59
2022/01/24 18:14:15;;;;;;;60.25;28.42;;;;;;;;;;4977672;28;20375;-60
2022/01/24 18:16:41;;;;;;;68.70;30.20;;;;;;;;;;4994999;28;20064;-59
2022/01/24 18:19:07;;;;;;;65.63;30.33;;;;;;;;;;4994803;28;20045;-60
2022/01/24 18:21:35;;;;;;;63.72;30.08;;;;;;;;;;4994237;28;20026;-62
2022/01/24 18:24:01;;;;;;;70.53;31.42;;;;;;;;;;4994802;28;20081;-60
2022/01/24 18:26:27;;;;;;;63.60;30.02;;;;;;;;;;5006907;28;20036;-63
2022/01/24 18:28:54;;;;;;;73.93;32.75;;;;;;;;;;5014152;28;20041;-60
2022/01/24 18:31:20;;;;;;;78.25;35.50;;;;;;;;;;5010935;28;20388;-61
2022/01/24 18:33:46;;;;;;;106.05;43.17;;;;;;;;;;4987526;28;20079;-60
2022/01/24 18:36:12;;;;;;;104.75;42.90;;;;;;;;;;4997663;28;20030;-60
2022/01/24 18:38:38;;;;;;;118.80;46.90;;;;;;;;;;4992872;28;20038;-61
2022/01/24 18:41:04;;;;;;;111.03;46.85;;;;;;;;;;4994842;28;20122;-61
2022/01/24 18:43:34;;;;;;;111.85;47.00;;;;;;;;;;5001598;28;20030;-61
2022/01/24 18:46:00;;;;;;;140.27;62.97;;;;;;;;;;4999203;28;20489;-61
2022/01/24 18:48:26;;;;;;;163.07;68.13;;;;;;;;;;5012517;28;20756;-61
2022/01/24 18:50:53;;;;;;;161.70;61.45;;;;;;;;;;4995533;28;20128;-62
2022/01/24 18:53:19;;;;;;;169.57;58.72;;;;;;;;;;5013435;28;20491;-61
2022/01/24 18:55:45;;;;;;;172.73;62.63;;;;;;;;;;5013442;28;20030;-62
2022/01/24 18:58:12;;;;;;;170.55;59.92;;;;;;;;;;5013683;28;20092;-60
2022/01/24 19:00:38;;;;;;;144.13;52.92;;;;;;;;;;5013643;28;20033;-62
2022/01/24 19:03:05;;;;;;;130.68;49.97;;;;;;;;;;4998424;28;20039;-62
2022/01/24 19:05:32;;;;;;;111.43;48.10;;;;;;;;;;4985554;28;20484;-61
2022/01/24 19:08:02;;;;;;;126.18;52.83;;;;;;;;;;5004554;28;20634;-61
2022/01/24 19:10:31;;;;;;;123.88;51.30;;;;;;;;;;5002176;28;20555;-63
2022/01/24 19:12:58;;;;;;;122.90;52.10;;;;;;;;;;5003723;28;20081;-62
2022/01/24 19:15:28;;;;;;;130.23;54.83;;;;;;;;;;5004042;28;20036;-62
2022/01/24 19:18:01;;;;;;;127.07;53.70;;;;;;;;;;5002583;28;20527;-61
2022/01/24 19:23:17;;;;;;;123.60;51.08;;;;;;;;;;5005060;28;20080;-61
2022/01/24 19:25:56;;;;;;;151.38;61.65;;;;;;;;;;5001913;28;20113;-62
2022/01/24 19:28:23;;;;;;;136.55;56.22;;;;;;;;;;5003228;28;20057;-62
2022/01/24 19:30:49;;;;;;;123.97;51.50;;;;;;;;;;5008696;28;20092;-61
2022/01/24 19:33:18;;;;;;;127.63;51.03;;;;;;;;;;5009770;28;20433;-62
2022/01/24 19:35:44;;;;;;;121.75;52.35;;;;;;;;;;4994131;28;20409;-62
2022/01/24 19:38:10;;;;;;;136.57;56.08;;;;;;;;;;5000395;28;20113;-62
2022/01/24 19:40:36;;;;;;;140.80;58.05;;;;;;;;;;5011588;28;20025;-62
2022/01/24 19:43:03;;;;;;;153.77;62.60;;;;;;;;;;5012254;28;20111;-63
2022/01/24 19:45:30;;;;;;;168.02;67.03;;;;;;;;;;5004970;28;20470;-63
2022/01/24 19:47:57;;;;;;;182.70;71.57;;;;;;;;;;5012064;28;20120;-61
2022/01/24 19:50:23;;;;;;;175.10;73.20;;;;;;;;;;5012133;28;20050;-62
2022/01/24 19:52:50;;;;;;;185.35;73.15;;;;;;;;;;5005195;28;20478;-60
2022/01/24 19:55:28;;;;;;;161.60;69.30;;;;;;;;;;4992874;28;20137;-62
2022/01/24 19:58:06;;;;;;;161.50;67.68;;;;;;;;;;4992931;28;20032;-63
2022/01/24 20:00:32;;;;;;;155.00;66.93;;;;;;;;;;4992958;28;20053;-63
2022/01/24 20:02:58;;;;;;;158.65;66.38;;;;;;;;;;4992656;28;20026;-63
2022/01/24 20:05:24;;;;;;;144.70;63.53;;;;;;;;;;4992808;28;20026;-63
2022/01/24 20:07:50;;;;;;;149.50;67.13;;;;;;;;;;4992556;28;20031;-61
2022/01/24 20:10:16;;;;;;;154.00;66.43;;;;;;;;;;4997125;28;20033;-62
2022/01/24 20:12:42;;;;;;;159.95;67.90;;;;;;;;;;5011817;28;20057;-61
2022/01/24 20:15:09;;;;;;;153.43;66.72;;;;;;;;;;5012130;28;20026;-61
2022/01/24 20:17:35;;;;;;;155.05;68.18;;;;;;;;;;5012043;28;20041;-62
2022/01/24 20:20:01;;;;;;;145.63;66.05;;;;;;;;;;5011838;28;20132;-62
2022/01/24 20:22:27;;;;;;;162.52;69.60;;;;;;;;;;5011795;28;20037;-62
2022/01/24 20:24:53;;;;;;;152.15;65.30;;;;;;;;;;5011778;28;20535;-63
2022/01/24 20:27:19;;;;;;;143.45;63.90;;;;;;;;;;5011596;28;20091;-62
2022/01/24 20:29:47;;;;;;;152.50;65.95;;;;;;;;;;5011808;28;20470;-62
2022/01/24 20:32:14;;;;;;;149.15;65.50;;;;;;;;;;5011594;28;20048;-65
2022/01/24 20:34:40;;;;;;;145.50;64.53;;;;;;;;;;5011996;28;20037;-62
2022/01/24 20:37:06;;;;;;;147.57;64.68;;;;;;;;;;4994176;28;20040;-63
2022/01/24 20:39:32;;;;;;;149.88;66.75;;;;;;;;;;5011457;28;20561;-63
2022/01/24 20:41:58;;;;;;;154.80;66.28;;;;;;;;;;5011144;28;20026;-61
2022/01/24 20:44:25;;;;;;;153.57;67.53;;;;;;;;;;5010743;28;20025;-62
2022/01/24 20:46:53;;;;;;;155.98;67.00;;;;;;;;;;5011864;28;20426;-63
2022/01/24 20:49:19;;;;;;;153.05;65.85;;;;;;;;;;5011556;28;20025;-63
2022/01/24 20:51:46;;;;;;;145.02;62.83;;;;;;;;;;5011354;28;20050;-62
2022/01/24 20:54:12;;;;;;;151.85;65.38;;;;;;;;;;5011062;28;20153;-62
2022/01/24 20:56:38;;;;;;;152.73;66.03;;;;;;;;;;5011475;28;20053;-63
2022/01/24 20:59:04;;;;;;;143.30;64.30;;;;;;;;;;5011279;28;20038;-62
2022/01/24 21:01:30;;;;;;;138.95;61.67;;;;;;;;;;5010596;28;20045;-62
2022/01/24 21:03:56;;;;;;;146.95;64.13;;;;;;;;;;5011468;28;20025;-62
2022/01/24 21:06:23;;;;;;;149.05;63.25;;;;;;;;;;5011199;28;20029;-61
2022/01/24 21:08:49;;;;;;;147.73;64.00;;;;;;;;;;5011301;28;20036;-63
2022/01/24 21:11:24;;;;;;;156.82;70.03;;;;;;;;;;5011344;28;20108;-61
2022/01/24 21:13:54;;;;;;;163.15;75.32;;;;;;;;;;5011268;28;20033;-62
2022/01/24 21:16:22;;;;;;;162.27;72.20;;;;;;;;;;5011265;28;20044;-63
2022/01/24 21:18:49;;;;;;;152.40;71.00;;;;;;;;;;5011320;28;20030;-63
2022/01/24 21:21:15;;;;;;;152.02;67.95;;;;;;;;;;5011485;28;20030;-62
2022/01/24 21:23:41;;;;;;;156.00;70.47;;;;;;;;;;5010932;28;20041;-62
2022/01/24 21:26:07;;;;;;;153.10;67.22;;;;;;;;;;5011176;28;20026;-63
2022/01/24 21:28:34;;;;;;;161.98;68.25;;;;;;;;;;5011340;28;20482;-63
2022/01/24 21:31:00;;;;;;;153.00;64.68;;;;;;;;;;5011471;28;20030;-62
2022/01/24 21:33:35;;;;;;;152.93;66.40;;;;;;;;;;5011204;28;20026;-63
2022/01/24 21:36:02;;;;;;;159.68;68.05;;;;;;;;;;5011225;28;20057;-63
2022/01/24 21:38:28;;;;;;;153.00;68.32;;;;;;;;;;5011279;28;20041;-63
2022/01/24 21:40:55;;;;;;;153.90;65.63;;;;;;;;;;5011394;28;20097;-63
2022/01/24 21:43:21;;;;;;;150.45;64.47;;;;;;;;;;5010642;28;20091;-62
2022/01/24 21:45:47;;;;;;;153.07;66.50;;;;;;;;;;5010981;28;20030;-62
2022/01/24 21:48:13;;;;;;;153.20;65.72;;;;;;;;;;5010714;28;20085;-63
2022/01/24 21:50:40;;;;;;;138.32;63.25;;;;;;;;;;5010562;28;20050;-63
2022/01/24 21:53:06;;;;;;;142.07;61.35;;;;;;;;;;5011154;28;20034;-63
2022/01/24 21:55:33;;;;;;;145.57;64.68;;;;;;;;;;5011098;28;20033;-63
2022/01/24 21:58:00;;;;;;;179.18;77.10;;;;;;;;;;5010771;28;20366;-63